createdAt,value
2022-11-12T00:02:20.506Z,84.09
2022-11-12T00:05:06.959Z,86.20
2022-11-12T00:07:53.554Z,93.37
2022-11-12T00:10:40.386Z,95.14
2022-11-12T00:13:26.642Z,88.78
2022-11-12T00:16:13.165Z,85.15
2022-11-12T00:18:59.337Z,87.58
2022-11-12T00:21:45.569Z,88.82
2022-11-12T00:24:32.233Z,90.66
2022-11-12T00:27:18.677Z,91.07
2022-11-12T00:30:06.188Z,86.97
2022-11-12T00:32:52.854Z,86.39
2022-11-12T00:35:39.126Z,88.48
2022-11-12T00:38:25.509Z,84.57
2022-11-12T00:41:12.094Z,87.35
2022-11-12T00:43:58.885Z,88.70
2022-11-12T00:46:45.306Z,88.72
2022-11-12T00:49:31.786Z,88.42
2022-11-12T00:52:17.874Z,87.97
2022-11-12T00:55:04.597Z,86.69
2022-11-12T00:57:51.207Z,85.87
2022-11-12T01:00:37.553Z,87.25
2022-11-12T01:03:24.184Z,87.80
2022-11-12T01:06:16.095Z,88.18
2022-11-12T01:09:02.380Z,88.64
2022-11-12T01:11:49.245Z,88.92
2022-11-12T01:14:36.635Z,88.94
2022-11-12T01:17:23.316Z,88.94
2022-11-12T01:20:09.759Z,88.55
2022-11-12T01:22:56.316Z,88.14
2022-11-12T01:25:42.746Z,88.28
2022-11-12T01:28:29.575Z,88.24
2022-11-12T01:31:18.257Z,86.81
2022-11-12T01:34:07.797Z,86.75
2022-11-12T01:36:54.628Z,85.51
2022-11-12T01:39:40.827Z,85.64
2022-11-12T01:42:30.664Z,85.41
2022-11-12T01:45:17.226Z,85.85
2022-11-12T01:48:04.747Z,85.44
2022-11-12T01:50:51.496Z,85.16
2022-11-12T01:53:42.496Z,84.74
2022-11-12T01:56:30.114Z,85.25
2022-11-12T01:59:30.302Z,84.16
2022-11-12T02:02:16.711Z,83.93
2022-11-12T02:05:05.759Z,82.74
2022-11-12T02:07:53.064Z,82.00
2022-11-12T02:10:40.566Z,81.00
2022-11-12T02:13:45.654Z,80.46
2022-11-12T02:16:44.183Z,82.22
2022-11-12T02:19:30.798Z,78.96
2022-11-12T02:22:17.334Z,80.71
2022-11-12T02:25:04.152Z,82.39
2022-11-12T02:27:55.835Z,78.57
2022-11-12T02:30:47.823Z,82.46
2022-11-12T02:33:34.074Z,80.83
2022-11-12T02:36:21.423Z,80.54
2022-11-12T02:39:07.853Z,80.80
2022-11-12T02:41:54.305Z,79.69
2022-11-12T02:44:40.544Z,81.28
2022-11-12T02:47:26.915Z,81.73
2022-11-12T02:50:13.283Z,80.57
2022-11-12T02:52:59.706Z,80.23
2022-11-12T02:55:45.943Z,80.66
2022-11-12T02:58:32.228Z,80.70
2022-11-12T03:01:18.830Z,80.09
2022-11-12T03:04:05.382Z,82.67
2022-11-12T03:06:52.675Z,82.92
2022-11-12T03:09:38.807Z,84.37
2022-11-12T03:12:25.046Z,85.21
2022-11-12T03:15:11.455Z,86.13
2022-11-12T03:17:59.185Z,83.23
2022-11-12T03:20:45.605Z,83.38
2022-11-12T03:23:32.484Z,84.30
2022-11-12T03:26:18.965Z,85.64
2022-11-12T03:29:05.153Z,84.75
2022-11-12T03:31:51.278Z,85.00
2022-11-12T03:34:37.815Z,84.11
2022-11-12T03:37:24.094Z,84.31
2022-11-12T03:40:10.816Z,85.82
2022-11-12T03:42:57.427Z,83.89
2022-11-12T03:45:43.786Z,84.66
2022-11-12T03:48:30.338Z,84.37
2022-11-12T03:51:17.574Z,84.62
2022-11-12T03:54:04.339Z,85.18
2022-11-12T03:56:50.724Z,84.72
2022-11-12T03:59:37.438Z,84.08
2022-11-12T04:02:25.764Z,83.52
2022-11-12T04:05:30.970Z,81.95
2022-11-12T04:08:39.446Z,82.30
2022-11-12T04:11:25.995Z,83.88
2022-11-12T04:14:12.544Z,84.09
2022-11-12T04:17:17.514Z,84.29
2022-11-12T04:20:22.774Z,83.90
2022-11-12T04:23:09.286Z,83.53
2022-11-12T04:26:22.294Z,82.53
2022-11-12T04:29:27.395Z,81.22
2022-11-12T04:32:14.269Z,79.87
2022-11-12T04:35:00.856Z,82.81
2022-11-12T04:37:47.826Z,79.97
2022-11-12T04:40:52.894Z,79.92
2022-11-12T04:43:58.374Z,80.46
2022-11-12T04:46:45.141Z,82.02
2022-11-12T04:49:31.675Z,80.38
2022-11-12T04:52:18.499Z,85.02
2022-11-12T04:55:05.375Z,83.86
2022-11-12T04:57:54.868Z,82.61
2022-11-12T05:00:46.425Z,78.66
2022-11-12T05:03:32.598Z,77.45
2022-11-12T05:06:37.748Z,80.32
2022-11-12T05:09:28.383Z,79.44
2022-11-12T05:12:14.856Z,80.31
2022-11-12T05:15:01.366Z,80.69
2022-11-12T05:17:47.916Z,81.96
2022-11-12T05:20:36.035Z,77.93
2022-11-12T05:23:22.199Z,82.08
2022-11-12T05:26:09.332Z,76.63
2022-11-12T05:28:56.102Z,76.00
2022-11-12T05:31:42.846Z,79.15
2022-11-12T05:34:29.295Z,81.43
2022-11-12T05:37:16.744Z,80.64
2022-11-12T05:40:03.467Z,80.53
2022-11-12T05:42:50.047Z,80.62
2022-11-12T05:45:36.403Z,82.11
2022-11-12T05:48:24.541Z,78.76
2022-11-12T05:51:13.302Z,80.62
2022-11-12T05:54:00.826Z,82.61
2022-11-12T05:56:47.370Z,80.37
2022-11-12T05:59:33.589Z,79.28
2022-11-12T06:02:20.102Z,78.22
2022-11-12T06:05:06.938Z,76.54
2022-11-12T06:07:53.265Z,76.65
2022-11-12T06:10:40.065Z,80.29
2022-11-12T06:13:26.777Z,78.89
2022-11-12T06:16:13.393Z,81.60
2022-11-12T06:19:00.217Z,81.04
2022-11-12T06:21:46.564Z,84.03
2022-11-12T06:24:35.429Z,84.46
2022-11-12T06:27:22.148Z,81.77
2022-11-12T06:30:10.041Z,80.83
2022-11-12T06:32:56.305Z,82.08
2022-11-12T06:35:43.331Z,82.96
2022-11-12T06:38:33.750Z,83.79
2022-11-12T06:41:20.074Z,85.32
2022-11-12T06:44:06.546Z,84.90
2022-11-12T06:46:52.712Z,86.28
2022-11-12T06:49:39.453Z,84.72
2022-11-12T06:52:25.673Z,84.12
2022-11-12T06:55:11.833Z,84.84
2022-11-12T06:57:58.282Z,87.16
2022-11-12T07:00:44.627Z,82.37
2022-11-12T07:03:30.994Z,82.14
2022-11-12T07:06:20.687Z,80.96
2022-11-12T07:09:07.744Z,86.96
2022-11-12T07:11:54.205Z,86.05
2022-11-12T07:14:40.753Z,85.38
2022-11-12T07:17:27.022Z,84.68
2022-11-12T07:20:13.795Z,84.16
2022-11-12T07:23:01.772Z,82.11
2022-11-12T07:25:48.184Z,85.22
2022-11-12T07:28:34.732Z,87.59
2022-11-12T07:31:21.112Z,88.86
2022-11-12T07:34:07.645Z,87.89
2022-11-12T07:36:54.105Z,86.25
2022-11-12T07:39:40.596Z,87.98
2022-11-12T07:42:27.205Z,86.41
2022-11-12T07:45:13.498Z,89.06
2022-11-12T07:47:59.869Z,86.60
2022-11-12T07:50:46.167Z,84.54
2022-11-12T07:53:32.961Z,86.67
2022-11-12T07:56:21.704Z,87.88
2022-11-12T07:59:08.170Z,85.13
2022-11-12T08:01:54.653Z,83.94
2022-11-12T08:04:41.014Z,80.52
2022-11-12T08:07:27.352Z,80.60
2022-11-12T08:10:13.395Z,82.54
2022-11-12T08:12:59.765Z,78.06
2022-11-12T08:15:51.941Z,77.96
2022-11-12T08:18:38.884Z,76.77
2022-11-12T08:21:25.625Z,77.32
2022-11-12T08:24:12.083Z,73.69
2022-11-12T08:26:58.977Z,72.50
2022-11-12T08:29:45.416Z,71.20
2022-11-12T08:32:32.174Z,71.71
2022-11-12T08:35:18.445Z,69.77
2022-11-12T08:38:08.015Z,68.22
2022-11-12T08:40:54.955Z,67.96
2022-11-12T08:43:42.364Z,65.13
2022-11-12T08:46:28.958Z,65.83
2022-11-12T08:49:15.263Z,66.84
2022-11-12T08:52:01.566Z,69.63
2022-11-12T08:54:47.937Z,66.42
2022-11-12T08:57:41.407Z,66.97
2022-11-12T09:00:28.078Z,68.10
2022-11-12T09:03:15.320Z,68.23
2022-11-12T09:06:04.168Z,67.20
2022-11-12T09:08:50.585Z,67.16
2022-11-12T09:11:37.137Z,66.78
2022-11-12T09:14:23.693Z,66.40
2022-11-12T09:17:09.866Z,66.57
2022-11-12T09:19:56.497Z,66.64
2022-11-12T09:22:42.887Z,65.78
2022-11-12T09:25:29.606Z,67.24
2022-11-12T09:28:18.683Z,66.27
2022-11-12T09:31:07.896Z,69.90
2022-11-12T09:33:54.116Z,68.91
2022-11-12T09:36:40.700Z,68.19
2022-11-12T09:39:27.305Z,72.71
2022-11-12T09:42:17.286Z,71.45
2022-11-12T09:45:14.595Z,71.76
2022-11-12T09:48:03.136Z,70.15
2022-11-12T09:50:59.106Z,69.97
2022-11-12T09:53:57.238Z,70.24
2022-11-12T09:56:43.680Z,70.30
2022-11-12T09:59:35.267Z,69.40
2022-11-12T10:02:39.523Z,69.58
2022-11-12T10:05:41.979Z,69.51
2022-11-12T10:08:31.180Z,69.48
2022-11-12T10:12:09.915Z,70.31
2022-11-12T10:15:35.898Z,67.37
2022-11-12T10:19:00.008Z,65.52
2022-11-12T10:22:12.288Z,65.83
2022-11-12T10:25:13.906Z,64.59
2022-11-12T10:28:02.777Z,60.98
2022-11-12T10:30:49.017Z,54.85
2022-11-12T10:33:35.767Z,51.45
2022-11-12T10:36:36.478Z,49.75
2022-11-12T10:39:37.318Z,46.28
2022-11-12T10:42:24.285Z,47.10
2022-11-12T10:45:22.300Z,47.64
2022-11-12T10:48:34.664Z,43.16
2022-11-12T10:51:27.918Z,42.11
2022-11-12T10:54:27.399Z,43.00
2022-11-12T10:57:27.268Z,42.48
2022-11-12T11:00:13.588Z,44.72
2022-11-12T11:03:03.133Z,47.02
2022-11-12T11:06:04.088Z,48.96
2022-11-12T11:08:55.226Z,47.72
2022-11-12T11:11:53.836Z,48.37
2022-11-12T11:14:40.906Z,49.11
2022-11-12T11:17:27.288Z,48.13
2022-11-12T11:20:34.396Z,49.34
2022-11-12T11:23:24.136Z,45.29
2022-11-12T11:26:21.637Z,45.08
2022-11-12T11:29:38.220Z,43.94
2022-11-12T11:32:42.672Z,45.03
2022-11-12T11:35:50.045Z,45.87
2022-11-12T11:38:49.174Z,46.39
2022-11-12T11:41:44.754Z,48.04
2022-11-12T11:44:59.618Z,47.92
2022-11-12T11:48:01.646Z,48.55
2022-11-12T11:50:57.841Z,47.14
2022-11-12T11:54:08.865Z,46.00
2022-11-12T11:56:59.216Z,45.57
2022-11-12T12:00:25.792Z,48.51
2022-11-12T12:03:18.079Z,49.45
2022-11-12T12:06:04.567Z,48.11
2022-11-12T12:08:53.364Z,47.93
2022-11-12T12:11:47.547Z,49.49
2022-11-12T12:14:46.304Z,51.32
2022-11-12T12:17:50.526Z,52.00
2022-11-12T12:20:59.555Z,51.09
2022-11-12T12:23:48.735Z,53.89
2022-11-12T12:26:42.673Z,52.98
2022-11-12T12:29:30.435Z,54.44
2022-11-12T12:32:24.474Z,53.13
2022-11-12T12:35:49.894Z,54.36
2022-11-12T12:39:10.275Z,54.30
2022-11-12T12:42:09.544Z,54.22
2022-11-12T12:45:18.015Z,54.15
2022-11-12T12:48:22.133Z,55.79
2022-11-12T12:51:09.098Z,55.45
2022-11-12T12:53:55.446Z,57.18
2022-11-12T12:56:47.144Z,56.68
2022-11-12T12:59:33.635Z,57.38
2022-11-12T13:02:22.236Z,57.34
2022-11-12T13:05:27.387Z,58.75
2022-11-12T13:08:19.425Z,58.23
2022-11-12T13:11:06.053Z,58.25
2022-11-12T13:13:52.410Z,57.98
2022-11-12T13:16:51.356Z,59.97
2022-11-12T13:19:58.921Z,59.75
2022-11-12T13:22:45.158Z,58.64
2022-11-12T13:25:32.485Z,58.08
2022-11-12T13:28:18.983Z,59.17
2022-11-12T13:31:26.238Z,59.05
2022-11-12T13:34:17.850Z,57.70
2022-11-12T13:37:05.807Z,58.48
2022-11-12T13:39:52.416Z,59.00
2022-11-12T13:42:50.935Z,60.80
2022-11-12T13:45:48.499Z,58.98
2022-11-12T13:49:01.079Z,59.01
2022-11-12T13:51:52.296Z,60.59
2022-11-12T13:54:39.343Z,59.72
2022-11-12T13:57:28.624Z,59.55
2022-11-12T14:00:18.194Z,60.45
2022-11-12T14:03:07.041Z,59.70
2022-11-12T14:05:54.374Z,59.75
2022-11-12T14:09:07.506Z,59.75
2022-11-12T14:12:22.908Z,60.34
2022-11-12T14:15:37.368Z,60.85
2022-11-12T14:18:40.144Z,60.02
2022-11-12T14:21:26.478Z,60.35
2022-11-12T14:24:13.448Z,61.67
2022-11-12T14:26:59.958Z,61.82
2022-11-12T14:29:46.856Z,64.05
2022-11-12T14:32:37.584Z,63.71
2022-11-12T14:35:30.074Z,62.86
2022-11-12T14:38:20.415Z,63.04
2022-11-12T14:41:24.055Z,63.90
2022-11-12T14:44:15.685Z,61.73
2022-11-12T14:47:02.484Z,63.31
2022-11-12T14:49:49.970Z,63.93
2022-11-12T14:52:41.695Z,62.77
2022-11-12T14:55:37.215Z,62.89
2022-11-12T14:58:24.527Z,65.69
2022-11-12T15:01:59.270Z,66.41
2022-11-12T15:04:26.340Z,65.61
2022-11-12T15:07:34.664Z,65.28
2022-11-12T15:10:30.775Z,65.21
2022-11-12T15:13:20.316Z,66.67
2022-11-12T15:16:08.107Z,68.64
2022-11-12T15:19:07.027Z,68.05
2022-11-12T15:21:56.175Z,68.20
2022-11-12T15:24:45.012Z,68.83
2022-11-12T15:27:36.552Z,68.73
2022-11-12T15:30:32.077Z,69.11
2022-11-12T15:33:22.353Z,68.87
2022-11-12T15:36:18.115Z,68.41
2022-11-12T15:39:11.395Z,68.54
2022-11-12T15:42:03.657Z,68.54
2022-11-12T15:44:51.396Z,69.74
2022-11-12T15:47:37.955Z,70.07
2022-11-12T15:50:24.975Z,70.86
2022-11-12T15:53:11.406Z,70.78
2022-11-12T15:55:57.953Z,69.88
2022-11-12T15:58:44.246Z,70.54
2022-11-12T16:01:30.873Z,69.94
2022-11-12T16:04:17.247Z,67.81
2022-11-12T16:07:07.149Z,68.38
2022-11-12T16:09:54.555Z,69.12
2022-11-12T16:12:41.397Z,69.30
2022-11-12T16:15:27.576Z,69.44
2022-11-12T16:18:14.150Z,70.17
2022-11-12T16:21:00.466Z,70.46
2022-11-12T16:23:46.726Z,69.56
2022-11-12T16:26:33.346Z,70.49
2022-11-12T16:29:20.053Z,72.39
2022-11-12T16:32:07.048Z,71.38
2022-11-12T16:34:58.318Z,72.71
2022-11-12T16:37:48.196Z,70.36
2022-11-12T16:40:34.446Z,71.22
2022-11-12T16:43:21.085Z,74.41
2022-11-12T16:46:14.314Z,72.86
2022-11-12T16:49:00.585Z,74.00
2022-11-12T16:51:46.815Z,73.07
2022-11-12T16:54:33.168Z,73.16
2022-11-12T16:57:19.299Z,72.43
2022-11-12T17:00:06.845Z,71.36
2022-11-12T17:02:53.733Z,72.52
2022-11-12T17:05:39.993Z,69.74
2022-11-12T17:08:33.756Z,70.78
2022-11-12T17:11:20.686Z,71.40
2022-11-12T17:14:07.877Z,72.44
2022-11-12T17:16:54.335Z,71.70
2022-11-12T17:19:40.798Z,74.12
2022-11-12T17:22:27.610Z,70.74
2022-11-12T17:25:14.132Z,71.87
2022-11-12T17:28:00.813Z,76.12
2022-11-12T17:30:47.176Z,75.17
2022-11-12T17:33:37.798Z,74.64
2022-11-12T17:36:26.377Z,74.67
2022-11-12T17:39:13.725Z,76.21
2022-11-12T17:41:59.856Z,73.43
2022-11-12T17:44:46.766Z,77.92
2022-11-12T17:47:37.904Z,74.04
2022-11-12T17:50:26.647Z,72.56
2022-11-12T17:53:13.433Z,73.39
2022-11-12T17:56:00.481Z,73.44
2022-11-12T17:58:47.454Z,78.34
2022-11-12T18:01:34.609Z,81.34
2022-11-12T18:04:23.449Z,76.88
2022-11-12T18:07:10.552Z,75.58
2022-11-12T18:09:57.042Z,75.77
2022-11-12T18:12:43.834Z,78.61
2022-11-12T18:15:32.845Z,77.67
2022-11-12T18:18:20.073Z,76.56
2022-11-12T18:21:06.827Z,75.60
2022-11-12T18:23:53.527Z,76.66
2022-11-12T18:26:39.954Z,78.37
2022-11-12T18:29:26.185Z,78.52
2022-11-12T18:32:12.924Z,84.24
2022-11-12T18:34:59.408Z,81.70
2022-11-12T18:37:46.045Z,78.49
2022-11-12T18:40:32.389Z,81.88
2022-11-12T18:43:18.636Z,80.54
2022-11-12T18:46:05.425Z,79.49
2022-11-12T18:48:51.912Z,79.14
2022-11-12T18:51:39.795Z,78.78
2022-11-12T18:54:25.876Z,78.97
2022-11-12T18:57:12.406Z,83.10
2022-11-12T18:59:58.550Z,80.40
2022-11-12T19:02:45.005Z,83.10
2022-11-12T19:05:31.675Z,81.56
2022-11-12T19:08:19.582Z,83.71
2022-11-12T19:11:08.772Z,87.56
2022-11-12T19:13:55.704Z,87.21
2022-11-12T19:16:44.995Z,88.16
2022-11-12T19:19:31.513Z,84.75
2022-11-12T19:22:17.852Z,83.29
2022-11-12T19:25:04.586Z,81.43
2022-11-12T19:27:51.023Z,80.57
2022-11-12T19:30:37.306Z,81.76
2022-11-12T19:33:24.018Z,82.19
2022-11-12T19:36:13.524Z,79.36
2022-11-12T19:39:02.709Z,80.29
2022-11-12T19:41:49.103Z,79.10
2022-11-12T19:44:35.745Z,77.14
2022-11-12T19:47:22.146Z,77.57
2022-11-12T19:50:08.735Z,83.21
2022-11-12T19:52:55.433Z,84.14
2022-11-12T19:55:41.886Z,80.97
2022-11-12T19:58:28.901Z,82.84
2022-11-12T20:01:18.076Z,79.71
2022-11-12T20:04:04.948Z,78.92
2022-11-12T20:06:51.549Z,77.26
2022-11-12T20:09:38.426Z,77.51
2022-11-12T20:12:25.468Z,83.48
2022-11-12T20:15:11.984Z,85.96
2022-11-12T20:17:58.435Z,84.09
2022-11-12T20:20:53.285Z,82.00
2022-11-12T20:23:42.994Z,84.46
2022-11-12T20:26:29.517Z,84.56
2022-11-12T20:29:15.987Z,83.90
2022-11-12T20:32:02.661Z,83.42
2022-11-12T20:34:49.085Z,83.97
2022-11-12T20:37:35.468Z,84.53
2022-11-12T20:40:22.298Z,83.79
2022-11-12T20:43:08.925Z,85.32
2022-11-12T20:45:54.897Z,84.40
2022-11-12T20:48:43.568Z,83.51
2022-11-12T20:51:30.533Z,81.56
2022-11-12T20:54:17.105Z,81.75
2022-11-12T20:57:03.532Z,82.61
2022-11-12T20:59:51.469Z,82.57
2022-11-12T21:02:38.165Z,81.29
2022-11-12T21:05:25.025Z,82.96
2022-11-12T21:08:11.433Z,77.29
2022-11-12T21:10:59.341Z,77.07
2022-11-12T21:13:45.826Z,77.71
2022-11-12T21:16:32.808Z,77.71
2022-11-12T21:19:19.353Z,79.12
2022-11-12T21:22:05.863Z,81.84
2022-11-12T21:24:52.175Z,79.38
2022-11-12T21:27:38.376Z,78.41
2022-11-12T21:30:24.976Z,82.12
2022-11-12T21:33:12.346Z,83.29
2022-11-12T21:35:59.775Z,78.21
2022-11-12T21:38:47.186Z,77.06
2022-11-12T21:41:33.717Z,79.57
2022-11-12T21:44:20.392Z,78.73
2022-11-12T21:47:07.024Z,80.68
2022-11-12T21:49:53.465Z,79.34
2022-11-12T21:52:39.644Z,77.97
2022-11-12T21:55:25.816Z,80.18
2022-11-12T21:58:12.040Z,82.28
2022-11-12T22:01:12.179Z,78.44
2022-11-12T22:04:01.906Z,78.97
2022-11-12T22:06:48.564Z,76.32
2022-11-12T22:09:35.076Z,79.81
2022-11-12T22:12:21.257Z,85.22
2022-11-12T22:15:08.254Z,84.24
2022-11-12T22:17:54.767Z,79.06
2022-11-12T22:20:41.235Z,78.73
2022-11-12T22:23:27.992Z,80.06
2022-11-12T22:26:20.813Z,83.62
2022-11-12T22:29:07.415Z,82.88
2022-11-12T22:31:53.757Z,82.22
2022-11-12T22:34:40.353Z,87.13
2022-11-12T22:37:26.535Z,84.96
2022-11-12T22:40:13.773Z,84.36
2022-11-12T22:43:00.505Z,86.74
2022-11-12T22:45:46.755Z,86.12
2022-11-12T22:48:33.637Z,82.98
2022-11-12T22:51:22.965Z,82.12
2022-11-12T22:54:10.412Z,81.58
2022-11-12T22:56:56.650Z,81.26
2022-11-12T22:59:43.026Z,79.97
2022-11-12T23:02:29.495Z,78.83
2022-11-12T23:05:15.979Z,77.24
2022-11-12T23:08:02.326Z,79.21
2022-11-12T23:10:48.715Z,80.53
2022-11-12T23:13:35.775Z,81.23
2022-11-12T23:16:25.524Z,82.54
2022-11-12T23:19:12.444Z,84.18
2022-11-12T23:21:58.774Z,82.75
2022-11-12T23:24:45.284Z,81.93
2022-11-12T23:27:31.533Z,84.47
2022-11-12T23:30:18.056Z,82.36
2022-11-12T23:33:04.595Z,84.15
2022-11-12T23:35:50.806Z,85.44
2022-11-12T23:38:37.375Z,84.99
2022-11-12T23:41:26.201Z,82.01
2022-11-12T23:44:12.526Z,82.44
2022-11-12T23:46:59.078Z,81.29
2022-11-12T23:49:45.415Z,82.01
2022-11-12T23:52:31.716Z,80.43
2022-11-12T23:55:17.997Z,81.79
2022-11-12T23:58:04.797Z,80.73
